ΕΜΥ, Εθνική Μετεωρολογική Υπηρεσία - Δελτία Καιρού, Προγνώσεις

ΑΕΡΟΝΑΥΤΙΛΙΑ

GREEK AIRPORTS CODES

LGAT 011800Z AUTO VRB03KT //// // ////// 08/M04 Q1021 RE//=

EUROPEAN AIRPORTS CODES

LFPO 011730Z 27005KT 9999 FEW036 BKN046 BKN120 09/02 Q1029NOSIG=